createdAt,value
2023-03-16T00:01:41.722Z,8.30
2023-03-16T00:04:49.863Z,5.03
2023-03-16T00:07:58.163Z,4.50
2023-03-16T00:11:07.690Z,2.73
2023-03-16T00:14:15.770Z,4.43
2023-03-16T00:17:23.803Z,2.93
2023-03-16T00:20:33.516Z,3.73
2023-03-16T00:23:42.530Z,2.77
2023-03-16T00:26:54.728Z,4.53
2023-03-16T00:30:03.617Z,2.37
2023-03-16T00:33:12.469Z,3.27
2023-03-16T00:36:22.680Z,3.90
2023-03-16T00:39:35.528Z,3.10
2023-03-16T00:42:44.977Z,4.43
2023-03-16T00:45:59.062Z,5.20
2023-03-16T00:49:09.410Z,4.23
2023-03-16T00:52:18.012Z,7.53
2023-03-16T00:55:27.043Z,4.23
2023-03-16T00:58:39.237Z,5.40
2023-03-16T01:01:47.815Z,4.57
2023-03-16T01:04:55.893Z,3.50
2023-03-16T01:08:04.296Z,3.30
2023-03-16T01:11:16.515Z,3.57
2023-03-16T01:14:26.909Z,4.17
2023-03-16T01:17:35.447Z,4.67
2023-03-16T01:20:50.449Z,3.10
2023-03-16T01:23:58.927Z,4.07
2023-03-16T01:27:07.828Z,2.87
2023-03-16T01:30:17.929Z,3.20
2023-03-16T01:33:29.076Z,4.57
2023-03-16T01:36:37.389Z,2.80
2023-03-16T01:39:49.439Z,3.97
2023-03-16T01:43:04.441Z,3.80
2023-03-16T01:46:23.531Z,3.27
2023-03-16T01:49:38.966Z,3.13
2023-03-16T01:52:47.070Z,3.57
2023-03-16T01:55:55.701Z,2.87
2023-03-16T01:59:12.083Z,2.43
2023-03-16T02:02:26.304Z,3.53
2023-03-16T02:05:44.020Z,3.33
2023-03-16T02:08:58.793Z,2.77
2023-03-16T02:12:18.481Z,3.20
2023-03-16T02:15:31.758Z,4.13
2023-03-16T02:18:41.541Z,3.30
2023-03-16T02:22:02.144Z,4.00
2023-03-16T02:25:13.990Z,2.83
2023-03-16T02:28:31.963Z,4.67
2023-03-16T02:31:41.662Z,5.20
2023-03-16T02:34:49.938Z,4.77
2023-03-16T02:37:58.080Z,2.73
2023-03-16T02:41:15.445Z,3.37
2023-03-16T02:44:29.664Z,3.30
2023-03-16T02:47:45.694Z,6.13
2023-03-16T02:50:55.768Z,3.70
2023-03-16T02:54:04.938Z,3.40
2023-03-16T02:57:15.758Z,3.87
2023-03-16T03:00:24.954Z,5.60
2023-03-16T03:03:35.052Z,3.20
2023-03-16T03:06:43.227Z,4.27
2023-03-16T03:09:53.592Z,4.37
2023-03-16T03:13:02.308Z,5.83
2023-03-16T03:16:11.616Z,3.80
2023-03-16T03:19:21.285Z,4.77
2023-03-16T03:22:29.986Z,4.20
2023-03-16T03:25:38.104Z,2.43
2023-03-16T03:28:47.277Z,3.23
2023-03-16T03:31:55.436Z,2.20
2023-03-16T03:35:06.107Z,3.27
2023-03-16T03:38:14.240Z,3.23
2023-03-16T03:41:26.075Z,2.57
2023-03-16T03:44:35.609Z,5.47
2023-03-16T03:47:45.466Z,4.70
2023-03-16T03:51:01.161Z,3.23
2023-03-16T03:54:38.659Z,3.33
2023-03-16T03:57:50.881Z,3.13
2023-03-16T04:00:59.198Z,3.93
2023-03-16T04:04:07.431Z,4.27
2023-03-16T04:07:17.142Z,3.40
2023-03-16T04:10:29.373Z,6.20
2023-03-16T04:13:37.819Z,4.67
2023-03-16T04:16:46.459Z,6.07
2023-03-16T04:19:55.436Z,5.50
2023-03-16T04:23:05.333Z,7.67
2023-03-16T04:26:16.871Z,6.73
2023-03-16T04:29:28.141Z,4.20
2023-03-16T04:32:40.181Z,4.93
2023-03-16T04:35:48.478Z,4.60
2023-03-16T04:38:59.861Z,4.33
2023-03-16T04:42:08.553Z,8.40
2023-03-16T04:45:18.763Z,5.93
2023-03-16T04:48:29.276Z,4.97
2023-03-16T04:51:40.539Z,14.67
2023-03-16T04:54:52.637Z,7.57
2023-03-16T04:58:01.476Z,7.73
2023-03-16T05:01:14.623Z,8.03
2023-03-16T05:04:24.584Z,7.97
2023-03-16T05:07:33.287Z,11.20
2023-03-16T05:10:44.651Z,10.10
2023-03-16T05:13:53.347Z,12.67
2023-03-16T05:17:03.932Z,13.90
2023-03-16T05:20:16.481Z,15.93
2023-03-16T05:23:30.875Z,12.40
2023-03-16T05:26:44.622Z,12.20
2023-03-16T05:29:56.465Z,9.80
2023-03-16T05:33:05.976Z,8.40
2023-03-16T05:36:15.060Z,11.60
2023-03-16T05:39:26.478Z,10.33
2023-03-16T05:42:36.000Z,9.00
2023-03-16T05:45:44.521Z,11.07
2023-03-16T05:48:55.934Z,10.93
2023-03-16T05:52:05.183Z,15.23
2023-03-16T05:55:18.971Z,14.40
2023-03-16T05:58:34.676Z,16.20
2023-03-16T06:01:46.924Z,17.10
2023-03-16T06:04:55.670Z,12.53
2023-03-16T06:08:05.751Z,13.90
2023-03-16T06:11:16.398Z,15.30
2023-03-16T06:14:28.271Z,11.83
2023-03-16T06:17:37.961Z,11.50
2023-03-16T06:20:47.773Z,13.40
2023-03-16T06:23:56.500Z,12.37
2023-03-16T06:27:05.231Z,11.60
2023-03-16T06:30:25.102Z,12.90
2023-03-16T06:33:33.923Z,12.60
2023-03-16T06:36:42.240Z,15.17
2023-03-16T06:39:54.321Z,13.97
2023-03-16T06:43:02.688Z,13.40
2023-03-16T06:46:12.909Z,13.60
2023-03-16T06:49:21.786Z,13.67
2023-03-16T06:52:32.064Z,13.30
2023-03-16T06:55:41.714Z,12.20
2023-03-16T06:58:52.084Z,14.27
2023-03-16T07:02:02.358Z,12.73
2023-03-16T07:05:14.131Z,10.53
2023-03-16T07:08:22.751Z,9.57
2023-03-16T07:11:32.495Z,10.07
2023-03-16T07:14:42.581Z,9.43
2023-03-16T07:17:57.661Z,10.40
2023-03-16T07:21:08.274Z,9.93
2023-03-16T07:24:17.406Z,9.90
2023-03-16T07:27:27.409Z,9.23
2023-03-16T07:30:35.577Z,6.03
2023-03-16T07:33:45.127Z,7.20
2023-03-16T07:36:59.479Z,8.73
2023-03-16T07:40:13.943Z,9.63
2023-03-16T07:43:22.580Z,7.53
2023-03-16T07:46:32.725Z,6.90
2023-03-16T07:49:42.619Z,8.87
2023-03-16T07:52:51.385Z,9.90
2023-03-16T07:55:59.979Z,9.77
2023-03-16T07:59:08.382Z,5.73
2023-03-16T08:02:21.558Z,6.93
2023-03-16T08:05:33.205Z,6.37
2023-03-16T08:08:45.206Z,6.83
2023-03-16T08:12:01.970Z,6.83
2023-03-16T08:15:11.765Z,7.63
2023-03-16T08:18:21.421Z,7.50
2023-03-16T08:21:31.279Z,7.03
2023-03-16T08:24:39.983Z,6.40
2023-03-16T08:27:51.189Z,7.90
2023-03-16T08:30:59.439Z,8.77
2023-03-16T08:34:24.571Z,7.33
2023-03-16T08:37:34.232Z,6.87
2023-03-16T08:40:47.621Z,8.80
2023-03-16T08:43:57.799Z,8.30
2023-03-16T08:47:12.213Z,8.53
2023-03-16T08:50:23.482Z,8.43
2023-03-16T08:53:33.464Z,7.73
2023-03-16T08:56:41.859Z,9.33
2023-03-16T08:59:51.113Z,7.17
2023-03-16T09:03:00.744Z,8.03
2023-03-16T09:06:17.514Z,7.40
2023-03-16T09:09:27.445Z,8.50
2023-03-16T09:12:38.477Z,7.23
2023-03-16T09:15:46.982Z,6.93
2023-03-16T09:18:55.882Z,9.50
2023-03-16T09:22:04.154Z,7.50
2023-03-16T09:25:14.443Z,7.83
2023-03-16T09:28:22.666Z,7.10
2023-03-16T09:31:31.196Z,6.43
2023-03-16T09:34:39.671Z,5.83
2023-03-16T09:38:04.742Z,7.30
2023-03-16T09:41:40.265Z,6.07
2023-03-16T09:45:06.484Z,5.87
2023-03-16T09:48:18.909Z,5.87
2023-03-16T09:51:39.529Z,6.57
2023-03-16T09:54:58.081Z,6.17
2023-03-16T09:58:17.776Z,5.80
2023-03-16T10:01:44.776Z,6.63
2023-03-16T10:05:08.206Z,6.10
2023-03-16T10:08:24.515Z,5.93
2023-03-16T10:11:38.418Z,7.60
2023-03-16T10:14:55.177Z,6.57
2023-03-16T10:18:13.476Z,7.33
2023-03-16T10:21:25.208Z,5.53
2023-03-16T10:24:49.526Z,7.93
2023-03-16T10:27:57.752Z,5.87
2023-03-16T10:31:08.112Z,5.93
2023-03-16T10:34:16.990Z,4.90
2023-03-16T10:37:28.302Z,5.97
2023-03-16T10:40:40.216Z,5.93
2023-03-16T10:43:52.520Z,6.10
2023-03-16T10:47:05.454Z,5.30
2023-03-16T10:50:16.807Z,5.13
2023-03-16T10:53:30.534Z,5.83
2023-03-16T10:56:38.623Z,5.60
2023-03-16T10:59:50.778Z,5.73
2023-03-16T11:03:02.514Z,5.47
2023-03-16T11:06:22.889Z,4.77
2023-03-16T11:09:35.535Z,6.07
2023-03-16T11:12:49.128Z,4.73
2023-03-16T11:16:02.744Z,6.47
2023-03-16T11:19:22.334Z,5.87
2023-03-16T11:22:31.745Z,6.97
2023-03-16T11:25:47.767Z,4.87
2023-03-16T11:29:08.870Z,6.67
2023-03-16T11:32:24.815Z,5.87
2023-03-16T11:35:58.393Z,6.80
2023-03-16T11:39:24.814Z,4.30
2023-03-16T11:42:40.103Z,5.47
2023-03-16T11:46:03.084Z,3.90
2023-03-16T11:49:42.859Z,3.73
2023-03-16T11:53:05.041Z,4.00
2023-03-16T11:56:29.789Z,4.57
2023-03-16T12:00:18.291Z,5.17
2023-03-16T12:04:10.244Z,4.77
2023-03-16T12:07:39.580Z,4.90
2023-03-16T12:10:56.325Z,5.20
2023-03-16T12:14:18.256Z,5.27
2023-03-16T12:17:31.415Z,4.70
2023-03-16T12:20:53.453Z,5.87
2023-03-16T12:24:07.055Z,4.47
2023-03-16T12:27:23.973Z,3.60
2023-03-16T12:30:46.084Z,4.57
2023-03-16T12:34:16.564Z,4.10
2023-03-16T12:37:38.487Z,4.47
2023-03-16T12:40:54.877Z,3.97
2023-03-16T12:44:16.073Z,3.70
2023-03-16T12:47:33.651Z,4.57
2023-03-16T12:50:51.952Z,5.13
2023-03-16T12:54:00.629Z,2.93
2023-03-16T12:57:16.329Z,2.90
2023-03-16T13:00:35.897Z,3.70
2023-03-16T13:03:48.073Z,3.20
2023-03-16T13:07:07.731Z,2.80
2023-03-16T13:10:20.698Z,3.17
2023-03-16T13:13:29.096Z,2.77
2023-03-16T13:16:39.844Z,2.67
2023-03-16T13:20:08.958Z,2.43
2023-03-16T13:23:24.438Z,2.33
2023-03-16T13:26:43.273Z,2.43
2023-03-16T13:29:57.931Z,2.73
2023-03-16T13:33:20.651Z,2.50
2023-03-16T13:36:31.875Z,1.70
2023-03-16T13:39:40.640Z,2.27
2023-03-16T13:42:52.904Z,2.83
2023-03-16T13:46:01.176Z,2.37
2023-03-16T13:49:13.300Z,3.23
2023-03-16T13:52:29.479Z,2.67
2023-03-16T13:55:40.284Z,2.83
2023-03-16T13:58:52.697Z,1.70
2023-03-16T14:02:02.864Z,2.00
2023-03-16T14:05:19.988Z,1.70
2023-03-16T14:08:29.805Z,3.17
2023-03-16T14:11:38.678Z,1.40
2023-03-16T14:14:51.032Z,1.37
2023-03-16T14:18:14.647Z,1.40
2023-03-16T14:21:30.794Z,1.50
2023-03-16T14:24:40.583Z,1.90
2023-03-16T14:27:49.343Z,1.30
2023-03-16T14:31:07.649Z,1.70
2023-03-16T14:34:29.891Z,0.90
2023-03-16T14:37:41.132Z,1.47
2023-03-16T14:40:56.192Z,1.30
2023-03-16T14:44:04.904Z,1.37
2023-03-16T14:47:27.973Z,1.47
2023-03-16T14:50:37.173Z,1.20
2023-03-16T14:53:46.636Z,2.50
2023-03-16T14:57:00.661Z,1.50
2023-03-16T15:00:12.605Z,1.20
2023-03-16T15:03:24.630Z,1.57
2023-03-16T15:06:34.320Z,1.20
2023-03-16T15:09:44.385Z,2.00
2023-03-16T15:12:54.860Z,2.57
2023-03-16T15:16:04.511Z,2.70
2023-03-16T15:19:12.665Z,1.13
2023-03-16T15:22:28.480Z,1.73
2023-03-16T15:25:41.301Z,1.80
2023-03-16T15:28:49.490Z,1.73
2023-03-16T15:31:57.708Z,2.10
2023-03-16T15:35:06.875Z,1.37
2023-03-16T15:38:19.128Z,1.40
2023-03-16T15:41:35.251Z,3.37
2023-03-16T15:44:58.191Z,1.60
2023-03-16T15:48:07.280Z,1.67
2023-03-16T15:51:24.426Z,4.27
2023-03-16T15:54:35.059Z,2.03
2023-03-16T15:57:45.147Z,4.50
2023-03-16T16:00:57.104Z,1.50
2023-03-16T16:04:15.427Z,2.10
2023-03-16T16:07:23.669Z,1.67
2023-03-16T16:10:32.263Z,1.97
2023-03-16T16:13:45.026Z,1.47
2023-03-16T16:16:54.869Z,1.83
2023-03-16T16:20:03.247Z,1.37
2023-03-16T16:23:11.383Z,1.50
2023-03-16T16:26:46.938Z,1.10
2023-03-16T16:29:57.943Z,1.83
2023-03-16T16:33:26.622Z,3.03
2023-03-16T16:36:35.489Z,3.33
2023-03-16T16:39:44.142Z,1.97
2023-03-16T16:42:54.936Z,1.37
2023-03-16T16:46:14.006Z,1.17
2023-03-16T16:49:28.582Z,1.33
2023-03-16T16:52:37.283Z,2.07
2023-03-16T16:55:46.018Z,2.00
2023-03-16T16:58:54.443Z,1.50
2023-03-16T17:02:24.425Z,3.13
2023-03-16T17:05:32.927Z,2.20
2023-03-16T17:08:41.542Z,1.70
2023-03-16T17:11:50.929Z,3.40
2023-03-16T17:14:59.265Z,2.77
2023-03-16T17:18:15.022Z,2.97
2023-03-16T17:21:26.175Z,2.47
2023-03-16T17:24:34.603Z,1.80
2023-03-16T17:27:46.812Z,3.33
2023-03-16T17:30:55.927Z,2.20
2023-03-16T17:34:19.140Z,3.00
2023-03-16T17:37:28.753Z,1.60
2023-03-16T17:40:37.538Z,2.77
2023-03-16T17:43:47.903Z,2.17
2023-03-16T17:46:56.514Z,3.37
2023-03-16T17:50:17.945Z,2.17
2023-03-16T17:53:26.518Z,2.40
2023-03-16T17:56:37.151Z,3.70
2023-03-16T17:59:47.346Z,2.97
2023-03-16T18:03:00.862Z,5.00
2023-03-16T18:06:18.092Z,4.30
2023-03-16T18:09:28.666Z,4.17
2023-03-16T18:12:37.166Z,4.40
2023-03-16T18:15:47.732Z,4.67
2023-03-16T18:19:01.040Z,3.10
2023-03-16T18:22:19.425Z,2.07
2023-03-16T18:25:39.536Z,2.90
2023-03-16T18:28:48.422Z,2.67
2023-03-16T18:31:59.367Z,3.10
2023-03-16T18:35:16.821Z,2.77
2023-03-16T18:38:31.475Z,6.30
2023-03-16T18:41:39.748Z,4.37
2023-03-16T18:44:48.810Z,5.87
2023-03-16T18:47:58.011Z,5.53
2023-03-16T18:51:06.815Z,3.77
2023-03-16T18:54:23.452Z,3.00
2023-03-16T18:57:33.288Z,2.27
2023-03-16T19:00:42.098Z,3.20
2023-03-16T19:03:51.884Z,3.30
2023-03-16T19:07:00.392Z,6.13
2023-03-16T19:10:24.238Z,3.73
2023-03-16T19:13:32.646Z,3.47
2023-03-16T19:16:40.971Z,3.07
2023-03-16T19:19:49.331Z,4.77
2023-03-16T19:23:04.657Z,4.90
2023-03-16T19:26:15.257Z,4.00
2023-03-16T19:29:30.376Z,4.50
2023-03-16T19:32:38.711Z,3.87
2023-03-16T19:35:51.903Z,5.07
2023-03-16T19:39:01.374Z,3.57
2023-03-16T19:42:22.329Z,4.80
2023-03-16T19:45:34.321Z,2.47
2023-03-16T19:48:43.476Z,3.20
2023-03-16T19:51:54.696Z,4.43
2023-03-16T19:55:03.297Z,3.13
2023-03-16T19:58:29.370Z,5.50
2023-03-16T20:01:37.890Z,2.87
2023-03-16T20:04:46.522Z,2.97
2023-03-16T20:07:55.864Z,3.30
2023-03-16T20:11:08.690Z,3.27
2023-03-16T20:14:24.644Z,2.30
2023-03-16T20:17:32.940Z,1.30
2023-03-16T20:20:41.988Z,0.80
2023-03-16T20:23:50.314Z,1.70
2023-03-16T20:26:58.505Z,1.33
2023-03-16T20:30:17.679Z,4.00
2023-03-16T20:33:28.871Z,3.77
2023-03-16T20:36:37.137Z,5.73
2023-03-16T20:39:45.470Z,6.00
2023-03-16T20:42:54.688Z,12.53
2023-03-16T20:46:04.779Z,4.90
2023-03-16T20:49:34.191Z,9.60
2023-03-16T20:52:42.443Z,8.47
2023-03-16T20:55:53.173Z,8.00
2023-03-16T20:59:01.629Z,9.20
2023-03-16T21:02:28.159Z,4.20
2023-03-16T21:05:36.563Z,5.63
2023-03-16T21:08:44.918Z,2.60
2023-03-16T21:11:53.284Z,1.73
2023-03-16T21:15:03.701Z,3.10
2023-03-16T21:18:19.816Z,2.03
2023-03-16T21:21:28.050Z,2.07
2023-03-16T21:24:37.088Z,2.00
2023-03-16T21:27:45.422Z,3.00
2023-03-16T21:30:58.058Z,2.40
2023-03-16T21:34:19.673Z,2.50
2023-03-16T21:37:28.288Z,2.57
2023-03-16T21:40:36.509Z,2.33
2023-03-16T21:43:46.677Z,4.40
2023-03-16T21:46:54.984Z,5.40
2023-03-16T21:50:14.062Z,3.73
2023-03-16T21:53:25.682Z,4.77
2023-03-16T21:56:34.032Z,4.60
2023-03-16T21:59:42.269Z,3.33
2023-03-16T22:02:53.731Z,5.30
2023-03-16T22:06:03.436Z,4.00
2023-03-16T22:09:30.213Z,3.60
2023-03-16T22:12:38.601Z,2.30
2023-03-16T22:15:49.408Z,2.13
2023-03-16T22:18:58.979Z,2.50
2023-03-16T22:22:16.000Z,3.13
2023-03-16T22:25:26.625Z,3.40
2023-03-16T22:28:35.916Z,5.77
2023-03-16T22:31:44.045Z,2.93
2023-03-16T22:34:56.886Z,2.70
2023-03-16T22:38:12.327Z,2.83
2023-03-16T22:41:20.685Z,2.70
2023-03-16T22:44:28.997Z,3.00
2023-03-16T22:47:38.653Z,3.33
2023-03-16T22:50:48.196Z,3.63
2023-03-16T22:54:02.395Z,2.97
2023-03-16T22:57:15.270Z,3.97
2023-03-16T23:00:28.624Z,3.43
2023-03-16T23:03:37.754Z,3.93
2023-03-16T23:06:53.367Z,5.37
2023-03-16T23:10:02.876Z,4.07
2023-03-16T23:13:17.890Z,2.83
2023-03-16T23:16:29.200Z,6.70
2023-03-16T23:19:37.468Z,3.53
2023-03-16T23:22:45.618Z,4.20
2023-03-16T23:25:55.180Z,3.50
2023-03-16T23:29:03.297Z,4.93
2023-03-16T23:32:12.786Z,5.50
2023-03-16T23:35:25.432Z,3.70
2023-03-16T23:38:33.899Z,5.07
2023-03-16T23:41:48.009Z,3.87
2023-03-16T23:45:08.364Z,3.83
2023-03-16T23:48:20.416Z,7.40
2023-03-16T23:51:31.448Z,3.17
2023-03-16T23:54:39.646Z,3.00
2023-03-16T23:57:49.574Z,3.60
